sensor_id;sensor_type;location;lat;lon;timestamp;temperature;humidity
43999;DHT22;51319;52.162;5.302;2023-01-24T00:01:02;3.60;99.90
43999;DHT22;51319;52.162;5.302;2023-01-24T00:03:29;3.60;99.90
43999;DHT22;51319;52.162;5.302;2023-01-24T00:05:56;3.60;99.90
43999;DHT22;51319;52.162;5.302;2023-01-24T00:08:23;3.60;99.90
43999;DHT22;51319;52.162;5.302;2023-01-24T00:11:04;3.60;99.90
43999;DHT22;51319;52.162;5.302;2023-01-24T00:13:32;3.50;99.90
43999;DHT22;51319;52.162;5.302;2023-01-24T00:16:13;3.50;99.90
43999;DHT22;51319;52.162;5.302;2023-01-24T00:18:40;3.50;99.90
43999;DHT22;51319;52.162;5.302;2023-01-24T00:21:10;3.50;99.90
43999;DHT22;51319;52.162;5.302;2023-01-24T00:23:42;3.50;99.90
43999;DHT22;51319;52.162;5.302;2023-01-24T00:26:10;3.50;99.90
43999;DHT22;51319;52.162;5.302;2023-01-24T00:28:38;3.50;99.90
43999;DHT22;51319;52.162;5.302;2023-01-24T00:31:05;3.50;99.90
43999;DHT22;51319;52.162;5.302;2023-01-24T00:33:33;3.50;99.90
43999;DHT22;51319;52.162;5.302;2023-01-24T00:36:03;3.50;99.90
43999;DHT22;51319;52.162;5.302;2023-01-24T00:38:30;3.50;99.90
43999;DHT22;51319;52.162;5.302;2023-01-24T00:40:58;3.50;99.90
43999;DHT22;51319;52.162;5.302;2023-01-24T00:43:25;3.50;99.90
43999;DHT22;51319;52.162;5.302;2023-01-24T00:45:55;3.50;99.90
43999;DHT22;51319;52.162;5.302;2023-01-24T00:48:22;3.50;99.90
43999;DHT22;51319;52.162;5.302;2023-01-24T00:50:49;3.50;99.90
43999;DHT22;51319;52.162;5.302;2023-01-24T00:53:16;3.50;99.90
43999;DHT22;51319;52.162;5.302;2023-01-24T00:55:46;3.50;99.90
43999;DHT22;51319;52.162;5.302;2023-01-24T00:58:14;3.50;99.90
43999;DHT22;51319;52.162;5.302;2023-01-24T01:00:41;3.50;99.90
43999;DHT22;51319;52.162;5.302;2023-01-24T01:03:13;3.50;99.90
43999;DHT22;51319;52.162;5.302;2023-01-24T01:05:40;3.50;99.90
43999;DHT22;51319;52.162;5.302;2023-01-24T01:08:08;3.50;99.90
43999;DHT22;51319;52.162;5.302;2023-01-24T01:10:35;3.50;99.90
43999;DHT22;51319;52.162;5.302;2023-01-24T01:13:03;3.50;99.90
43999;DHT22;51319;52.162;5.302;2023-01-24T01:15:30;3.50;99.90
43999;DHT22;51319;52.162;5.302;2023-01-24T01:17:58;3.40;99.90
43999;DHT22;51319;52.162;5.302;2023-01-24T01:20:25;3.50;99.90
43999;DHT22;51319;52.162;5.302;2023-01-24T01:22:53;3.50;99.90
43999;DHT22;51319;52.162;5.302;2023-01-24T01:25:20;3.50;99.90
43999;DHT22;51319;52.162;5.302;2023-01-24T01:27:47;3.40;99.90
43999;DHT22;51319;52.162;5.302;2023-01-24T01:30:17;3.40;99.90
43999;DHT22;51319;52.162;5.302;2023-01-24T01:32:45;3.40;99.90
43999;DHT22;51319;52.162;5.302;2023-01-24T01:35:13;3.40;99.90
43999;DHT22;51319;52.162;5.302;2023-01-24T01:37:40;3.40;99.90
43999;DHT22;51319;52.162;5.302;2023-01-24T01:40:07;3.40;99.90
43999;DHT22;51319;52.162;5.302;2023-01-24T01:48:00;3.40;99.90
43999;DHT22;51319;52.162;5.302;2023-01-24T01:50:34;3.40;99.90
43999;DHT22;51319;52.162;5.302;2023-01-24T01:53:04;3.40;99.90
43999;DHT22;51319;52.162;5.302;2023-01-24T01:55:34;3.40;99.90
43999;DHT22;51319;52.162;5.302;2023-01-24T01:58:02;3.40;99.90
43999;DHT22;51319;52.162;5.302;2023-01-24T02:00:30;3.40;99.90
43999;DHT22;51319;52.162;5.302;2023-01-24T02:03:05;3.40;99.90
43999;DHT22;51319;52.162;5.302;2023-01-24T02:05:53;3.40;99.90
43999;DHT22;51319;52.162;5.302;2023-01-24T02:08:22;3.40;99.90
43999;DHT22;51319;52.162;5.302;2023-01-24T02:10:50;3.40;99.90
43999;DHT22;51319;52.162;5.302;2023-01-24T02:13:37;3.40;99.90
43999;DHT22;51319;52.162;5.302;2023-01-24T02:16:11;3.40;99.90
43999;DHT22;51319;52.162;5.302;2023-01-24T02:18:41;3.40;99.90
43999;DHT22;51319;52.162;5.302;2023-01-24T02:21:14;3.40;99.90
43999;DHT22;51319;52.162;5.302;2023-01-24T02:23:56;3.40;99.90
43999;DHT22;51319;52.162;5.302;2023-01-24T02:26:28;3.40;99.90
43999;DHT22;51319;52.162;5.302;2023-01-24T02:29:07;3.40;99.90
43999;DHT22;51319;52.162;5.302;2023-01-24T02:31:58;3.40;99.90
43999;DHT22;51319;52.162;5.302;2023-01-24T02:34:27;3.40;99.90
43999;DHT22;51319;52.162;5.302;2023-01-24T02:36:58;3.40;99.90
43999;DHT22;51319;52.162;5.302;2023-01-24T02:39:32;3.40;99.90
43999;DHT22;51319;52.162;5.302;2023-01-24T02:42:14;3.30;99.90
43999;DHT22;51319;52.162;5.302;2023-01-24T02:44:47;3.30;99.90
43999;DHT22;51319;52.162;5.302;2023-01-24T02:47:15;3.30;99.90
43999;DHT22;51319;52.162;5.302;2023-01-24T02:49:42;3.40;99.90
43999;DHT22;51319;52.162;5.302;2023-01-24T02:52:09;3.30;99.90
43999;DHT22;51319;52.162;5.302;2023-01-24T02:54:55;3.40;99.90
43999;DHT22;51319;52.162;5.302;2023-01-24T02:57:22;3.40;99.90
43999;DHT22;51319;52.162;5.302;2023-01-24T03:00:08;3.40;99.90
43999;DHT22;51319;52.162;5.302;2023-01-24T03:02:35;3.30;99.90
43999;DHT22;51319;52.162;5.302;2023-01-24T03:05:02;3.30;99.90
43999;DHT22;51319;52.162;5.302;2023-01-24T03:07:29;3.30;99.90
43999;DHT22;51319;52.162;5.302;2023-01-24T03:10:13;3.30;99.90
43999;DHT22;51319;52.162;5.302;2023-01-24T03:12:40;3.30;99.90
43999;DHT22;51319;52.162;5.302;2023-01-24T03:15:26;3.30;99.90
43999;DHT22;51319;52.162;5.302;2023-01-24T03:18:11;3.30;99.90
43999;DHT22;51319;52.162;5.302;2023-01-24T03:20:59;3.30;99.90
43999;DHT22;51319;52.162;5.302;2023-01-24T03:23:45;3.30;99.90
43999;DHT22;51319;52.162;5.302;2023-01-24T03:26:30;3.30;99.90
43999;DHT22;51319;52.162;5.302;2023-01-24T03:29:15;3.30;99.90
43999;DHT22;51319;52.162;5.302;2023-01-24T03:32:01;3.30;99.90
43999;DHT22;51319;52.162;5.302;2023-01-24T03:34:47;3.20;99.90
43999;DHT22;51319;52.162;5.302;2023-01-24T03:37:18;3.20;99.90
43999;DHT22;51319;52.162;5.302;2023-01-24T03:40:11;3.20;99.90
43999;DHT22;51319;52.162;5.302;2023-01-24T03:42:39;3.20;99.90
43999;DHT22;51319;52.162;5.302;2023-01-24T03:45:17;3.20;99.90
43999;DHT22;51319;52.162;5.302;2023-01-24T03:47:47;3.20;99.90
43999;DHT22;51319;52.162;5.302;2023-01-24T03:50:36;3.20;99.90
43999;DHT22;51319;52.162;5.302;2023-01-24T03:53:23;3.20;99.90
43999;DHT22;51319;52.162;5.302;2023-01-24T03:55:55;3.20;99.90
43999;DHT22;51319;52.162;5.302;2023-01-24T03:58:23;3.20;99.90
43999;DHT22;51319;52.162;5.302;2023-01-24T04:00:52;3.20;99.90
43999;DHT22;51319;52.162;5.302;2023-01-24T04:03:19;3.20;99.90
43999;DHT22;51319;52.162;5.302;2023-01-24T04:05:47;3.20;99.90
43999;DHT22;51319;52.162;5.302;2023-01-24T04:08:16;3.10;99.90
43999;DHT22;51319;52.162;5.302;2023-01-24T04:10:43;3.10;99.90
43999;DHT22;51319;52.162;5.302;2023-01-24T04:13:11;3.10;99.90
43999;DHT22;51319;52.162;5.302;2023-01-24T04:15:38;3.10;99.90
43999;DHT22;51319;52.162;5.302;2023-01-24T04:18:06;3.10;99.90
43999;DHT22;51319;52.162;5.302;2023-01-24T04:20:35;3.10;99.90
43999;DHT22;51319;52.162;5.302;2023-01-24T04:23:04;3.10;99.90
43999;DHT22;51319;52.162;5.302;2023-01-24T04:25:32;3.10;99.90
43999;DHT22;51319;52.162;5.302;2023-01-24T04:28:00;3.10;99.90
43999;DHT22;51319;52.162;5.302;2023-01-24T04:30:27;3.10;99.90
43999;DHT22;51319;52.162;5.302;2023-01-24T04:32:54;3.10;99.90
43999;DHT22;51319;52.162;5.302;2023-01-24T04:35:24;3.10;99.90
43999;DHT22;51319;52.162;5.302;2023-01-24T04:37:51;3.10;99.90
43999;DHT22;51319;52.162;5.302;2023-01-24T04:40:18;3.10;99.90
43999;DHT22;51319;52.162;5.302;2023-01-24T04:42:45;3.00;99.90
43999;DHT22;51319;52.162;5.302;2023-01-24T04:45:12;3.00;99.90
43999;DHT22;51319;52.162;5.302;2023-01-24T04:47:39;3.00;99.90
43999;DHT22;51319;52.162;5.302;2023-01-24T04:50:07;3.00;99.90
43999;DHT22;51319;52.162;5.302;2023-01-24T04:52:34;3.00;99.90
43999;DHT22;51319;52.162;5.302;2023-01-24T04:55:01;3.00;99.90
43999;DHT22;51319;52.162;5.302;2023-01-24T04:57:28;3.00;99.90
43999;DHT22;51319;52.162;5.302;2023-01-24T04:59:55;3.00;99.90
43999;DHT22;51319;52.162;5.302;2023-01-24T05:02:22;2.90;99.90
43999;DHT22;51319;52.162;5.302;2023-01-24T05:04:48;2.90;99.90
43999;DHT22;51319;52.162;5.302;2023-01-24T05:07:15;2.90;99.90
43999;DHT22;51319;52.162;5.302;2023-01-24T05:09:42;2.90;99.90
43999;DHT22;51319;52.162;5.302;2023-01-24T05:12:09;2.90;99.90
43999;DHT22;51319;52.162;5.302;2023-01-24T05:14:36;2.90;99.90
43999;DHT22;51319;52.162;5.302;2023-01-24T05:17:03;2.90;99.90
43999;DHT22;51319;52.162;5.302;2023-01-24T05:19:30;2.90;99.90
43999;DHT22;51319;52.162;5.302;2023-01-24T05:21:57;2.90;99.90
43999;DHT22;51319;52.162;5.302;2023-01-24T05:24:25;2.90;99.90
43999;DHT22;51319;52.162;5.302;2023-01-24T05:26:51;2.90;99.90
43999;DHT22;51319;52.162;5.302;2023-01-24T05:29:18;2.80;99.90
43999;DHT22;51319;52.162;5.302;2023-01-24T05:31:45;2.90;99.90
43999;DHT22;51319;52.162;5.302;2023-01-24T05:34:12;2.90;99.90
43999;DHT22;51319;52.162;5.302;2023-01-24T05:36:39;2.90;99.90
43999;DHT22;51319;52.162;5.302;2023-01-24T05:39:06;2.90;99.90
43999;DHT22;51319;52.162;5.302;2023-01-24T05:41:33;2.80;99.90
43999;DHT22;51319;52.162;5.302;2023-01-24T05:43:59;2.80;99.90
43999;DHT22;51319;52.162;5.302;2023-01-24T05:46:26;2.80;99.90
43999;DHT22;51319;52.162;5.302;2023-01-24T05:48:55;2.80;99.90
43999;DHT22;51319;52.162;5.302;2023-01-24T05:51:22;2.80;99.90
43999;DHT22;51319;52.162;5.302;2023-01-24T05:53:49;2.80;99.90
43999;DHT22;51319;52.162;5.302;2023-01-24T05:56:18;2.80;99.90
43999;DHT22;51319;52.162;5.302;2023-01-24T05:58:47;2.80;99.90
43999;DHT22;51319;52.162;5.302;2023-01-24T06:01:18;2.80;99.90
43999;DHT22;51319;52.162;5.302;2023-01-24T06:03:47;2.80;99.90
43999;DHT22;51319;52.162;5.302;2023-01-24T06:06:17;2.80;99.90
43999;DHT22;51319;52.162;5.302;2023-01-24T06:08:45;2.80;99.90
43999;DHT22;51319;52.162;5.302;2023-01-24T06:11:21;2.80;99.90
43999;DHT22;51319;52.162;5.302;2023-01-24T06:13:52;2.80;99.90
43999;DHT22;51319;52.162;5.302;2023-01-24T06:16:24;2.80;99.90
43999;DHT22;51319;52.162;5.302;2023-01-24T06:18:54;2.80;99.90
43999;DHT22;51319;52.162;5.302;2023-01-24T06:21:44;2.70;99.90
43999;DHT22;51319;52.162;5.302;2023-01-24T06:24:20;2.70;99.90
43999;DHT22;51319;52.162;5.302;2023-01-24T06:26:48;2.70;99.90
43999;DHT22;51319;52.162;5.302;2023-01-24T06:29:19;2.70;99.90
43999;DHT22;51319;52.162;5.302;2023-01-24T06:31:55;2.70;99.90
43999;DHT22;51319;52.162;5.302;2023-01-24T06:37:14;2.70;99.90
43999;DHT22;51319;52.162;5.302;2023-01-24T06:39:49;2.70;99.90
43999;DHT22;51319;52.162;5.302;2023-01-24T06:42:19;2.70;99.90
43999;DHT22;51319;52.162;5.302;2023-01-24T06:44:52;2.70;99.90
43999;DHT22;51319;52.162;5.302;2023-01-24T06:47:19;2.60;99.90
43999;DHT22;51319;52.162;5.302;2023-01-24T06:49:45;2.60;99.90
43999;DHT22;51319;52.162;5.302;2023-01-24T06:52:12;2.60;99.90
43999;DHT22;51319;52.162;5.302;2023-01-24T06:54:40;2.60;99.90
43999;DHT22;51319;52.162;5.302;2023-01-24T06:57:07;2.60;99.90
43999;DHT22;51319;52.162;5.302;2023-01-24T06:59:33;2.60;99.90
43999;DHT22;51319;52.162;5.302;2023-01-24T07:02:00;2.60;99.90
43999;DHT22;51319;52.162;5.302;2023-01-24T07:04:27;2.60;99.90
43999;DHT22;51319;52.162;5.302;2023-01-24T07:06:55;2.60;99.90
43999;DHT22;51319;52.162;5.302;2023-01-24T07:09:22;2.60;99.90
43999;DHT22;51319;52.162;5.302;2023-01-24T07:11:50;2.60;99.90
43999;DHT22;51319;52.162;5.302;2023-01-24T07:14:21;2.60;99.90
43999;DHT22;51319;52.162;5.302;2023-01-24T07:16:49;2.60;99.90
43999;DHT22;51319;52.162;5.302;2023-01-24T07:19:21;2.60;99.90
43999;DHT22;51319;52.162;5.302;2023-01-24T07:21:53;2.60;99.90
43999;DHT22;51319;52.162;5.302;2023-01-24T07:24:22;2.60;99.90
43999;DHT22;51319;52.162;5.302;2023-01-24T07:26:51;2.60;99.90
43999;DHT22;51319;52.162;5.302;2023-01-24T07:29:18;2.60;99.90
43999;DHT22;51319;52.162;5.302;2023-01-24T07:31:45;2.60;99.90
43999;DHT22;51319;52.162;5.302;2023-01-24T07:34:16;2.60;99.90
43999;DHT22;51319;52.162;5.302;2023-01-24T07:36:45;2.60;99.90
43999;DHT22;51319;52.162;5.302;2023-01-24T07:39:12;2.60;99.90
43999;DHT22;51319;52.162;5.302;2023-01-24T07:41:39;2.60;99.90
43999;DHT22;51319;52.162;5.302;2023-01-24T07:44:09;2.60;99.90
43999;DHT22;51319;52.162;5.302;2023-01-24T07:46:36;2.60;99.90
43999;DHT22;51319;52.162;5.302;2023-01-24T07:49:03;2.60;99.90
43999;DHT22;51319;52.162;5.302;2023-01-24T07:51:30;2.60;99.90
43999;DHT22;51319;52.162;5.302;2023-01-24T07:53:57;2.60;99.90
43999;DHT22;51319;52.162;5.302;2023-01-24T07:56:24;2.60;99.90
43999;DHT22;51319;52.162;5.302;2023-01-24T07:58:54;2.60;99.90
43999;DHT22;51319;52.162;5.302;2023-01-24T08:01:23;2.60;99.90
43999;DHT22;51319;52.162;5.302;2023-01-24T08:03:52;2.60;99.90
43999;DHT22;51319;52.162;5.302;2023-01-24T08:06:19;2.60;99.90
43999;DHT22;51319;52.162;5.302;2023-01-24T08:08:46;2.60;99.90
43999;DHT22;51319;52.162;5.302;2023-01-24T08:11:13;2.60;99.90
43999;DHT22;51319;52.162;5.302;2023-01-24T08:13:44;2.60;99.90
43999;DHT22;51319;52.162;5.302;2023-01-24T08:16:11;2.60;99.90
43999;DHT22;51319;52.162;5.302;2023-01-24T08:18:38;2.60;99.90
43999;DHT22;51319;52.162;5.302;2023-01-24T08:21:05;2.60;99.90
43999;DHT22;51319;52.162;5.302;2023-01-24T08:23:33;2.60;99.90
43999;DHT22;51319;52.162;5.302;2023-01-24T08:26:01;2.60;99.90
43999;DHT22;51319;52.162;5.302;2023-01-24T08:28:28;2.60;99.90
43999;DHT22;51319;52.162;5.302;2023-01-24T08:30:59;2.70;99.90
43999;DHT22;51319;52.162;5.302;2023-01-24T08:33:26;2.70;99.90
43999;DHT22;51319;52.162;5.302;2023-01-24T08:35:53;2.70;99.90
43999;DHT22;51319;52.162;5.302;2023-01-24T08:38:20;2.70;99.90
43999;DHT22;51319;52.162;5.302;2023-01-24T08:40:47;2.70;99.90
43999;DHT22;51319;52.162;5.302;2023-01-24T08:43:16;2.80;99.90
43999;DHT22;51319;52.162;5.302;2023-01-24T08:45:43;2.90;99.90
43999;DHT22;51319;52.162;5.302;2023-01-24T08:48:12;2.90;99.90
43999;DHT22;51319;52.162;5.302;2023-01-24T08:50:39;2.90;99.90
43999;DHT22;51319;52.162;5.302;2023-01-24T08:53:06;2.90;99.90
43999;DHT22;51319;52.162;5.302;2023-01-24T08:55:32;2.80;99.90
43999;DHT22;51319;52.162;5.302;2023-01-24T08:58:01;2.80;99.90
43999;DHT22;51319;52.162;5.302;2023-01-24T09:00:29;2.80;99.90
43999;DHT22;51319;52.162;5.302;2023-01-24T09:02:57;2.90;99.90
43999;DHT22;51319;52.162;5.302;2023-01-24T09:05:28;2.90;99.90
43999;DHT22;51319;52.162;5.302;2023-01-24T09:07:56;2.80;99.90
43999;DHT22;51319;52.162;5.302;2023-01-24T09:10:24;2.80;99.90
43999;DHT22;51319;52.162;5.302;2023-01-24T09:12:50;2.80;99.90
43999;DHT22;51319;52.162;5.302;2023-01-24T09:15:17;2.80;99.90
43999;DHT22;51319;52.162;5.302;2023-01-24T09:17:44;2.80;99.90
43999;DHT22;51319;52.162;5.302;2023-01-24T09:20:11;2.80;99.90
43999;DHT22;51319;52.162;5.302;2023-01-24T09:22:39;2.80;99.90
43999;DHT22;51319;52.162;5.302;2023-01-24T09:25:08;2.80;99.90
43999;DHT22;51319;52.162;5.302;2023-01-24T09:27:36;2.80;99.90
43999;DHT22;51319;52.162;5.302;2023-01-24T09:30:04;2.70;99.90
43999;DHT22;51319;52.162;5.302;2023-01-24T09:32:31;2.80;99.90
43999;DHT22;51319;52.162;5.302;2023-01-24T09:34:58;2.70;99.90
43999;DHT22;51319;52.162;5.302;2023-01-24T09:37:25;2.80;99.90
43999;DHT22;51319;52.162;5.302;2023-01-24T09:39:53;2.80;99.90
43999;DHT22;51319;52.162;5.302;2023-01-24T09:42:45;2.80;99.90
43999;DHT22;51319;52.162;5.302;2023-01-24T09:45:36;2.70;99.90
43999;DHT22;51319;52.162;5.302;2023-01-24T09:48:12;2.70;99.90
43999;DHT22;51319;52.162;5.302;2023-01-24T09:50:56;2.80;99.90
43999;DHT22;51319;52.162;5.302;2023-01-24T09:53:34;2.80;99.90
43999;DHT22;51319;52.162;5.302;2023-01-24T09:56:06;2.80;99.90
43999;DHT22;51319;52.162;5.302;2023-01-24T09:58:41;2.80;99.90
43999;DHT22;51319;52.162;5.302;2023-01-24T10:01:13;2.80;99.90
43999;DHT22;51319;52.162;5.302;2023-01-24T10:03:42;2.80;99.90
43999;DHT22;51319;52.162;5.302;2023-01-24T10:06:15;2.80;99.90
43999;DHT22;51319;52.162;5.302;2023-01-24T10:08:59;2.80;99.90
43999;DHT22;51319;52.162;5.302;2023-01-24T10:25:26;2.90;99.90
43999;DHT22;51319;52.162;5.302;2023-01-24T10:27:55;2.90;99.90
43999;DHT22;51319;52.162;5.302;2023-01-24T10:30:45;3.00;99.90
43999;DHT22;51319;52.162;5.302;2023-01-24T10:33:19;2.90;99.90
43999;DHT22;51319;52.162;5.302;2023-01-24T10:35:55;3.00;99.90
43999;DHT22;51319;52.162;5.302;2023-01-24T10:38:23;3.00;99.90
43999;DHT22;51319;52.162;5.302;2023-01-24T10:40:53;2.90;99.90
43999;DHT22;51319;52.162;5.302;2023-01-24T10:43:26;2.90;99.90
43999;DHT22;51319;52.162;5.302;2023-01-24T10:51:20;3.00;99.90
43999;DHT22;51319;52.162;5.302;2023-01-24T10:53:48;3.00;99.90
43999;DHT22;51319;52.162;5.302;2023-01-24T10:56:20;3.10;99.90
43999;DHT22;51319;52.162;5.302;2023-01-24T10:59:08;3.10;99.90
43999;DHT22;51319;52.162;5.302;2023-01-24T11:01:44;3.20;99.90
43999;DHT22;51319;52.162;5.302;2023-01-24T11:04:30;3.20;99.90
43999;DHT22;51319;52.162;5.302;2023-01-24T11:06:56;3.20;99.90
43999;DHT22;51319;52.162;5.302;2023-01-24T11:09:31;3.20;99.90
43999;DHT22;51319;52.162;5.302;2023-01-24T11:12:02;3.30;99.90
43999;DHT22;51319;52.162;5.302;2023-01-24T11:14:32;3.30;99.90
43999;DHT22;51319;52.162;5.302;2023-01-24T11:17:01;3.30;99.90
43999;DHT22;51319;52.162;5.302;2023-01-24T11:19:34;3.40;99.90
43999;DHT22;51319;52.162;5.302;2023-01-24T11:22:18;3.40;99.90
43999;DHT22;51319;52.162;5.302;2023-01-24T11:24:46;3.40;99.90
43999;DHT22;51319;52.162;5.302;2023-01-24T11:27:18;3.40;99.90
43999;DHT22;51319;52.162;5.302;2023-01-24T11:30:24;3.40;99.90
43999;DHT22;51319;52.162;5.302;2023-01-24T11:33:19;3.40;99.90
43999;DHT22;51319;52.162;5.302;2023-01-24T11:35:55;3.40;99.90
43999;DHT22;51319;52.162;5.302;2023-01-24T11:38:35;3.40;99.90
43999;DHT22;51319;52.162;5.302;2023-01-24T11:52:35;3.40;99.90
43999;DHT22;51319;52.162;5.302;2023-01-24T11:58:30;3.40;99.90
43999;DHT22;51319;52.162;5.302;2023-01-24T12:01:21;3.40;99.90
43999;DHT22;51319;52.162;5.302;2023-01-24T12:09:22;3.40;99.90
43999;DHT22;51319;52.162;5.302;2023-01-24T12:12:17;3.40;99.90
43999;DHT22;51319;52.162;5.302;2023-01-24T12:18:07;3.50;99.90
43999;DHT22;51319;52.162;5.302;2023-01-24T12:26:07;3.50;99.90
43999;DHT22;51319;52.162;5.302;2023-01-24T12:31:51;3.50;99.90
43999;DHT22;51319;52.162;5.302;2023-01-24T12:34:39;3.60;99.90
43999;DHT22;51319;52.162;5.302;2023-01-24T12:48:30;3.50;99.90
43999;DHT22;51319;52.162;5.302;2023-01-24T12:54:03;3.60;99.90
43999;DHT22;51319;52.162;5.302;2023-01-24T12:59:13;3.60;99.90
43999;DHT22;51319;52.162;5.302;2023-01-24T13:07:28;3.60;99.90
43999;DHT22;51319;52.162;5.302;2023-01-24T13:10:04;3.60;99.90
43999;DHT22;51319;52.162;5.302;2023-01-24T13:12:32;3.70;99.90
43999;DHT22;51319;52.162;5.302;2023-01-24T13:15:18;3.70;99.90
43999;DHT22;51319;52.162;5.302;2023-01-24T13:18:11;3.70;99.80
43999;DHT22;51319;52.162;5.302;2023-01-24T13:20:54;3.60;99.50
43999;DHT22;51319;52.162;5.302;2023-01-24T13:31:58;3.60;98.90
43999;DHT22;51319;52.162;5.302;2023-01-24T13:34:42;3.50;99.00
43999;DHT22;51319;52.162;5.302;2023-01-24T13:37:28;3.60;99.00
43999;DHT22;51319;52.162;5.302;2023-01-24T13:42:36;3.60;99.10
43999;DHT22;51319;52.162;5.302;2023-01-24T13:47:53;3.70;99.10
43999;DHT22;51319;52.162;5.302;2023-01-24T13:50:22;3.70;99.10
43999;DHT22;51319;52.162;5.302;2023-01-24T13:52:51;3.60;99.00
43999;DHT22;51319;52.162;5.302;2023-01-24T13:58:18;3.60;98.70
43999;DHT22;51319;52.162;5.302;2023-01-24T14:00:54;3.50;98.60
43999;DHT22;51319;52.162;5.302;2023-01-24T14:03:27;3.50;98.70
43999;DHT22;51319;52.162;5.302;2023-01-24T14:22:15;3.50;98.90
43999;DHT22;51319;52.162;5.302;2023-01-24T14:24:35;3.50;99.10
43999;DHT22;51319;52.162;5.302;2023-01-24T14:29:48;3.40;98.90
43999;DHT22;51319;52.162;5.302;2023-01-24T14:32:34;3.40;98.90
43999;DHT22;51319;52.162;5.302;2023-01-24T14:37:39;3.40;98.80
43999;DHT22;51319;52.162;5.302;2023-01-24T14:40:24;3.40;98.80
43999;DHT22;51319;52.162;5.302;2023-01-24T14:43:02;3.30;98.70
43999;DHT22;51319;52.162;5.302;2023-01-24T14:45:31;3.30;98.80
43999;DHT22;51319;52.162;5.302;2023-01-24T14:48:00;3.30;99.00
43999;DHT22;51319;52.162;5.302;2023-01-24T14:50:33;3.30;98.90
43999;DHT22;51319;52.162;5.302;2023-01-24T14:53:01;3.30;98.90
43999;DHT22;51319;52.162;5.302;2023-01-24T14:55:38;3.30;98.90
43999;DHT22;51319;52.162;5.302;2023-01-24T14:58:21;3.30;99.00
43999;DHT22;51319;52.162;5.302;2023-01-24T15:00:50;3.30;99.00
43999;DHT22;51319;52.162;5.302;2023-01-24T15:03:21;3.30;99.10
43999;DHT22;51319;52.162;5.302;2023-01-24T15:08:23;3.30;99.10
43999;DHT22;51319;52.162;5.302;2023-01-24T15:10:57;3.30;99.20
43999;DHT22;51319;52.162;5.302;2023-01-24T15:13:30;3.30;99.00
43999;DHT22;51319;52.162;5.302;2023-01-24T15:15:59;3.30;98.90
43999;DHT22;51319;52.162;5.302;2023-01-24T15:18:40;3.30;98.90
43999;DHT22;51319;52.162;5.302;2023-01-24T15:21:34;3.30;98.90
43999;DHT22;51319;52.162;5.302;2023-01-24T15:24:06;3.20;98.80
43999;DHT22;51319;52.162;5.302;2023-01-24T15:26:42;3.20;98.90
43999;DHT22;51319;52.162;5.302;2023-01-24T15:37:58;3.10;99.00
43999;DHT22;51319;52.162;5.302;2023-01-24T15:40:25;3.10;98.80
43999;DHT22;51319;52.162;5.302;2023-01-24T15:42:53;3.10;98.80
43999;DHT22;51319;52.162;5.302;2023-01-24T15:45:41;3.10;98.80
43999;DHT22;51319;52.162;5.302;2023-01-24T15:48:21;3.10;98.90
43999;DHT22;51319;52.162;5.302;2023-01-24T15:50:53;3.00;98.80
43999;DHT22;51319;52.162;5.302;2023-01-24T15:53:34;3.00;98.90
43999;DHT22;51319;52.162;5.302;2023-01-24T15:56:03;3.00;98.90
43999;DHT22;51319;52.162;5.302;2023-01-24T15:58:32;2.90;98.90
43999;DHT22;51319;52.162;5.302;2023-01-24T16:01:00;2.90;99.00
43999;DHT22;51319;52.162;5.302;2023-01-24T16:03:27;2.90;98.90
43999;DHT22;51319;52.162;5.302;2023-01-24T16:05:54;2.90;99.00
43999;DHT22;51319;52.162;5.302;2023-01-24T16:08:21;2.90;99.10
43999;DHT22;51319;52.162;5.302;2023-01-24T16:10:49;2.80;99.10
43999;DHT22;51319;52.162;5.302;2023-01-24T16:15:52;2.80;99.10
43999;DHT22;51319;52.162;5.302;2023-01-24T16:18:19;2.90;99.30
43999;DHT22;51319;52.162;5.302;2023-01-24T16:20:48;2.80;99.30
43999;DHT22;51319;52.162;5.302;2023-01-24T16:23:15;2.90;99.40
43999;DHT22;51319;52.162;5.302;2023-01-24T16:25:42;2.80;99.40
43999;DHT22;51319;52.162;5.302;2023-01-24T16:28:21;2.80;99.50
43999;DHT22;51319;52.162;5.302;2023-01-24T16:30:49;2.80;99.40
43999;DHT22;51319;52.162;5.302;2023-01-24T16:33:17;2.80;99.30
43999;DHT22;51319;52.162;5.302;2023-01-24T16:35:45;2.80;99.40
43999;DHT22;51319;52.162;5.302;2023-01-24T16:38:13;2.70;99.30
43999;DHT22;51319;52.162;5.302;2023-01-24T16:40:41;2.70;99.40
43999;DHT22;51319;52.162;5.302;2023-01-24T16:43:19;2.70;99.40
43999;DHT22;51319;52.162;5.302;2023-01-24T16:45:49;2.70;99.40
43999;DHT22;51319;52.162;5.302;2023-01-24T16:48:16;2.70;99.50
43999;DHT22;51319;52.162;5.302;2023-01-24T16:50:44;2.70;99.50
43999;DHT22;51319;52.162;5.302;2023-01-24T16:53:12;2.70;99.50
43999;DHT22;51319;52.162;5.302;2023-01-24T16:55:40;2.60;99.60
43999;DHT22;51319;52.162;5.302;2023-01-24T16:58:09;2.60;99.50
43999;DHT22;51319;52.162;5.302;2023-01-24T17:00:36;2.60;99.50
43999;DHT22;51319;52.162;5.302;2023-01-24T17:03:04;2.60;99.50
43999;DHT22;51319;52.162;5.302;2023-01-24T17:05:31;2.60;99.50
43999;DHT22;51319;52.162;5.302;2023-01-24T17:07:58;2.50;99.40
43999;DHT22;51319;52.162;5.302;2023-01-24T17:10:25;2.50;99.50
43999;DHT22;51319;52.162;5.302;2023-01-24T17:12:54;2.50;99.50
43999;DHT22;51319;52.162;5.302;2023-01-24T17:15:25;2.50;99.60
43999;DHT22;51319;52.162;5.302;2023-01-24T17:17:51;2.50;99.70
43999;DHT22;51319;52.162;5.302;2023-01-24T17:20:18;2.50;99.60
43999;DHT22;51319;52.162;5.302;2023-01-24T17:22:45;2.50;99.60
43999;DHT22;51319;52.162;5.302;2023-01-24T17:25:12;2.40;99.60
43999;DHT22;51319;52.162;5.302;2023-01-24T17:27:39;2.40;99.60
43999;DHT22;51319;52.162;5.302;2023-01-24T17:30:06;2.40;99.60
43999;DHT22;51319;52.162;5.302;2023-01-24T17:32:35;2.40;99.50
43999;DHT22;51319;52.162;5.302;2023-01-24T17:35:06;2.40;99.50
43999;DHT22;51319;52.162;5.302;2023-01-24T17:37:34;2.40;99.60
43999;DHT22;51319;52.162;5.302;2023-01-24T17:40:01;2.40;99.60
43999;DHT22;51319;52.162;5.302;2023-01-24T17:42:29;2.40;99.60
43999;DHT22;51319;52.162;5.302;2023-01-24T17:44:56;2.40;99.60
43999;DHT22;51319;52.162;5.302;2023-01-24T17:47:23;2.40;99.50
43999;DHT22;51319;52.162;5.302;2023-01-24T17:49:52;2.40;99.60
43999;DHT22;51319;52.162;5.302;2023-01-24T17:52:18;2.40;99.60
43999;DHT22;51319;52.162;5.302;2023-01-24T17:54:50;2.30;99.60
43999;DHT22;51319;52.162;5.302;2023-01-24T17:57:17;2.30;99.70
43999;DHT22;51319;52.162;5.302;2023-01-24T17:59:44;2.30;99.70
43999;DHT22;51319;52.162;5.302;2023-01-24T18:02:11;2.30;99.70
43999;DHT22;51319;52.162;5.302;2023-01-24T18:04:39;2.30;99.70
43999;DHT22;51319;52.162;5.302;2023-01-24T18:07:06;2.30;99.70
43999;DHT22;51319;52.162;5.302;2023-01-24T18:09:33;2.30;99.80
43999;DHT22;51319;52.162;5.302;2023-01-24T18:12:00;2.30;99.80
43999;DHT22;51319;52.162;5.302;2023-01-24T18:14:27;2.30;99.80
43999;DHT22;51319;52.162;5.302;2023-01-24T18:16:54;2.30;99.80
43999;DHT22;51319;52.162;5.302;2023-01-24T18:19:21;2.30;99.80
43999;DHT22;51319;52.162;5.302;2023-01-24T18:21:48;2.30;99.70
43999;DHT22;51319;52.162;5.302;2023-01-24T18:24:15;2.30;99.60